sensor_id;sensor_type;location;lat;lon;timestamp;P1;durP1;ratioP1;P2;durP2;ratioP2
74867;SDS011;63419;42.262;12.210;2023-04-23T00:01:14;6.47;;;1.70;;
74867;SDS011;63419;42.262;12.210;2023-04-23T00:03:43;5.10;;;1.35;;
74867;SDS011;63419;42.262;12.210;2023-04-23T00:06:11;4.40;;;1.27;;
74867;SDS011;63419;42.262;12.210;2023-04-23T00:08:39;6.22;;;1.42;;
74867;SDS011;63419;42.262;12.210;2023-04-23T00:11:07;4.32;;;1.17;;
74867;SDS011;63419;42.262;12.210;2023-04-23T00:13:35;6.13;;;1.50;;
74867;SDS011;63419;42.262;12.210;2023-04-23T00:16:03;3.65;;;0.90;;
74867;SDS011;63419;42.262;12.210;2023-04-23T00:18:30;4.20;;;1.30;;
74867;SDS011;63419;42.262;12.210;2023-04-23T00:20:57;4.15;;;1.50;;
74867;SDS011;63419;42.262;12.210;2023-04-23T00:23:24;5.20;;;1.55;;
74867;SDS011;63419;42.262;12.210;2023-04-23T00:25:52;4.63;;;1.70;;
74867;SDS011;63419;42.262;12.210;2023-04-23T00:28:19;4.28;;;1.40;;
74867;SDS011;63419;42.262;12.210;2023-04-23T00:30:47;4.88;;;1.55;;
74867;SDS011;63419;42.262;12.210;2023-04-23T00:33:14;6.80;;;1.63;;
74867;SDS011;63419;42.262;12.210;2023-04-23T00:35:41;5.35;;;1.85;;
74867;SDS011;63419;42.262;12.210;2023-04-23T00:38:08;6.82;;;2.10;;
74867;SDS011;63419;42.262;12.210;2023-04-23T00:40:35;5.22;;;1.60;;
74867;SDS011;63419;42.262;12.210;2023-04-23T00:45:29;5.78;;;1.55;;
74867;SDS011;63419;42.262;12.210;2023-04-23T00:47:57;5.07;;;1.50;;
74867;SDS011;63419;42.262;12.210;2023-04-23T00:50:24;5.60;;;1.67;;
74867;SDS011;63419;42.262;12.210;2023-04-23T00:52:51;5.22;;;1.80;;
74867;SDS011;63419;42.262;12.210;2023-04-23T00:55:18;5.53;;;1.50;;
74867;SDS011;63419;42.262;12.210;2023-04-23T00:57:46;9.32;;;1.83;;
74867;SDS011;63419;42.262;12.210;2023-04-23T01:00:14;6.72;;;2.03;;
74867;SDS011;63419;42.262;12.210;2023-04-23T01:02:41;7.00;;;1.70;;
74867;SDS011;63419;42.262;12.210;2023-04-23T01:05:09;6.20;;;2.20;;
74867;SDS011;63419;42.262;12.210;2023-04-23T01:07:39;5.88;;;2.33;;
74867;SDS011;63419;42.262;12.210;2023-04-23T01:10:09;6.57;;;2.20;;
74867;SDS011;63419;42.262;12.210;2023-04-23T01:12:37;6.45;;;1.45;;
74867;SDS011;63419;42.262;12.210;2023-04-23T01:17:34;6.90;;;2.33;;
74867;SDS011;63419;42.262;12.210;2023-04-23T01:20:01;5.70;;;2.45;;
74867;SDS011;63419;42.262;12.210;2023-04-23T01:22:28;5.55;;;2.05;;
74867;SDS011;63419;42.262;12.210;2023-04-23T01:24:55;5.10;;;1.70;;
74867;SDS011;63419;42.262;12.210;2023-04-23T01:27:23;4.93;;;1.60;;
74867;SDS011;63419;42.262;12.210;2023-04-23T01:32:17;6.13;;;2.20;;
74867;SDS011;63419;42.262;12.210;2023-04-23T01:34:45;5.88;;;2.25;;
74867;SDS011;63419;42.262;12.210;2023-04-23T01:37:13;8.38;;;2.45;;
74867;SDS011;63419;42.262;12.210;2023-04-23T01:39:42;7.18;;;2.40;;
74867;SDS011;63419;42.262;12.210;2023-04-23T01:42:09;5.78;;;1.80;;
74867;SDS011;63419;42.262;12.210;2023-04-23T01:47:03;8.50;;;2.25;;
74867;SDS011;63419;42.262;12.210;2023-04-23T01:49:32;6.45;;;2.40;;
74867;SDS011;63419;42.262;12.210;2023-04-23T01:51:59;5.32;;;1.95;;
74867;SDS011;63419;42.262;12.210;2023-04-23T01:54:26;6.30;;;1.67;;
74867;SDS011;63419;42.262;12.210;2023-04-23T01:56:53;4.82;;;1.55;;
74867;SDS011;63419;42.262;12.210;2023-04-23T01:59:21;4.75;;;1.75;;
74867;SDS011;63419;42.262;12.210;2023-04-23T02:01:48;6.32;;;1.90;;
74867;SDS011;63419;42.262;12.210;2023-04-23T02:04:15;5.57;;;1.65;;
74867;SDS011;63419;42.262;12.210;2023-04-23T02:06:44;5.30;;;1.70;;
74867;SDS011;63419;42.262;12.210;2023-04-23T02:09:13;5.63;;;1.50;;
74867;SDS011;63419;42.262;12.210;2023-04-23T02:11:40;4.57;;;1.67;;
74867;SDS011;63419;42.262;12.210;2023-04-23T02:14:07;5.07;;;1.75;;
74867;SDS011;63419;42.262;12.210;2023-04-23T02:16:35;4.78;;;1.98;;
74867;SDS011;63419;42.262;12.210;2023-04-23T02:19:02;6.13;;;1.92;;
74867;SDS011;63419;42.262;12.210;2023-04-23T02:21:29;5.78;;;2.42;;
74867;SDS011;63419;42.262;12.210;2023-04-23T02:23:57;5.22;;;1.60;;
74867;SDS011;63419;42.262;12.210;2023-04-23T02:26:24;5.40;;;1.80;;
74867;SDS011;63419;42.262;12.210;2023-04-23T02:28:51;5.65;;;1.73;;
74867;SDS011;63419;42.262;12.210;2023-04-23T02:31:18;4.50;;;1.63;;
74867;SDS011;63419;42.262;12.210;2023-04-23T02:33:46;6.03;;;1.80;;
74867;SDS011;63419;42.262;12.210;2023-04-23T02:36:13;3.97;;;1.33;;
74867;SDS011;63419;42.262;12.210;2023-04-23T02:38:41;5.32;;;1.50;;
74867;SDS011;63419;42.262;12.210;2023-04-23T02:41:10;5.63;;;1.30;;
74867;SDS011;63419;42.262;12.210;2023-04-23T02:46:04;4.28;;;1.20;;
74867;SDS011;63419;42.262;12.210;2023-04-23T02:48:38;6.80;;;1.70;;
74867;SDS011;63419;42.262;12.210;2023-04-23T02:51:07;7.70;;;1.45;;
74867;SDS011;63419;42.262;12.210;2023-04-23T02:53:36;4.28;;;1.13;;
74867;SDS011;63419;42.262;12.210;2023-04-23T02:56:03;3.47;;;0.80;;
74867;SDS011;63419;42.262;12.210;2023-04-23T02:58:30;5.00;;;1.20;;
74867;SDS011;63419;42.262;12.210;2023-04-23T03:00:58;9.07;;;3.42;;
74867;SDS011;63419;42.262;12.210;2023-04-23T03:03:26;4.78;;;1.52;;
74867;SDS011;63419;42.262;12.210;2023-04-23T03:05:58;5.30;;;1.20;;
74867;SDS011;63419;42.262;12.210;2023-04-23T03:08:26;5.38;;;1.52;;
74867;SDS011;63419;42.262;12.210;2023-04-23T03:10:53;4.15;;;1.23;;
74867;SDS011;63419;42.262;12.210;2023-04-23T03:13:20;4.57;;;1.27;;
74867;SDS011;63419;42.262;12.210;2023-04-23T03:15:47;6.28;;;1.80;;
74867;SDS011;63419;42.262;12.210;2023-04-23T03:18:15;5.57;;;1.48;;
74867;SDS011;63419;42.262;12.210;2023-04-23T03:20:42;5.35;;;1.55;;
74867;SDS011;63419;42.262;12.210;2023-04-23T03:23:09;4.68;;;1.73;;
74867;SDS011;63419;42.262;12.210;2023-04-23T03:25:36;4.30;;;1.50;;
74867;SDS011;63419;42.262;12.210;2023-04-23T03:28:03;5.15;;;1.55;;
74867;SDS011;63419;42.262;12.210;2023-04-23T03:30:30;7.28;;;1.63;;
74867;SDS011;63419;42.262;12.210;2023-04-23T03:32:58;5.07;;;1.60;;
74867;SDS011;63419;42.262;12.210;2023-04-23T03:35:25;5.22;;;1.75;;
74867;SDS011;63419;42.262;12.210;2023-04-23T03:37:52;6.63;;;1.73;;
74867;SDS011;63419;42.262;12.210;2023-04-23T03:40:19;5.47;;;2.00;;
74867;SDS011;63419;42.262;12.210;2023-04-23T03:42:47;5.45;;;1.75;;
74867;SDS011;63419;42.262;12.210;2023-04-23T03:45:14;4.97;;;2.22;;
74867;SDS011;63419;42.262;12.210;2023-04-23T03:47:42;5.53;;;1.92;;
74867;SDS011;63419;42.262;12.210;2023-04-23T03:50:09;5.07;;;1.80;;
74867;SDS011;63419;42.262;12.210;2023-04-23T03:52:38;4.97;;;1.75;;
74867;SDS011;63419;42.262;12.210;2023-04-23T03:57:33;5.63;;;1.70;;
74867;SDS011;63419;42.262;12.210;2023-04-23T04:00:02;5.43;;;1.63;;
74867;SDS011;63419;42.262;12.210;2023-04-23T04:02:30;5.28;;;2.00;;
74867;SDS011;63419;42.262;12.210;2023-04-23T04:04:57;6.15;;;1.90;;
74867;SDS011;63419;42.262;12.210;2023-04-23T04:07:25;3.78;;;1.17;;
74867;SDS011;63419;42.262;12.210;2023-04-23T04:09:52;4.88;;;1.30;;
74867;SDS011;63419;42.262;12.210;2023-04-23T04:12:19;6.03;;;1.77;;
74867;SDS011;63419;42.262;12.210;2023-04-23T04:14:46;7.38;;;1.10;;
74867;SDS011;63419;42.262;12.210;2023-04-23T04:17:13;3.97;;;0.90;;
74867;SDS011;63419;42.262;12.210;2023-04-23T04:19:41;3.47;;;1.10;;
74867;SDS011;63419;42.262;12.210;2023-04-23T04:22:08;4.82;;;1.00;;
74867;SDS011;63419;42.262;12.210;2023-04-23T04:24:35;4.13;;;0.90;;
74867;SDS011;63419;42.262;12.210;2023-04-23T04:29:33;4.45;;;1.10;;
74867;SDS011;63419;42.262;12.210;2023-04-23T04:32:00;3.42;;;0.90;;
74867;SDS011;63419;42.262;12.210;2023-04-23T04:34:27;4.97;;;1.27;;
74867;SDS011;63419;42.262;12.210;2023-04-23T04:36:54;4.40;;;1.13;;
74867;SDS011;63419;42.262;12.210;2023-04-23T04:39:22;3.60;;;1.38;;
74867;SDS011;63419;42.262;12.210;2023-04-23T04:41:49;3.53;;;0.85;;
74867;SDS011;63419;42.262;12.210;2023-04-23T04:44:16;5.00;;;1.50;;
74867;SDS011;63419;42.262;12.210;2023-04-23T04:46:43;3.70;;;0.98;;
74867;SDS011;63419;42.262;12.210;2023-04-23T04:49:10;3.28;;;0.98;;
74867;SDS011;63419;42.262;12.210;2023-04-23T04:51:38;3.63;;;1.20;;
74867;SDS011;63419;42.262;12.210;2023-04-23T04:54:06;5.22;;;1.33;;
74867;SDS011;63419;42.262;12.210;2023-04-23T04:56:34;4.47;;;1.38;;
74867;SDS011;63419;42.262;12.210;2023-04-23T04:59:01;5.15;;;1.23;;
74867;SDS011;63419;42.262;12.210;2023-04-23T05:01:29;4.18;;;1.30;;
74867;SDS011;63419;42.262;12.210;2023-04-23T05:03:56;4.30;;;1.10;;
74867;SDS011;63419;42.262;12.210;2023-04-23T05:06:24;4.80;;;1.17;;
74867;SDS011;63419;42.262;12.210;2023-04-23T05:08:51;3.78;;;1.15;;
74867;SDS011;63419;42.262;12.210;2023-04-23T05:11:18;3.50;;;0.98;;
74867;SDS011;63419;42.262;12.210;2023-04-23T05:13:46;3.33;;;0.90;;
74867;SDS011;63419;42.262;12.210;2023-04-23T05:18:40;3.30;;;0.88;;
74867;SDS011;63419;42.262;12.210;2023-04-23T05:21:07;2.80;;;0.80;;
74867;SDS011;63419;42.262;12.210;2023-04-23T05:23:35;3.88;;;0.80;;
74867;SDS011;63419;42.262;12.210;2023-04-23T05:26:02;4.53;;;1.00;;
74867;SDS011;63419;42.262;12.210;2023-04-23T05:30:57;3.72;;;0.90;;
74867;SDS011;63419;42.262;12.210;2023-04-23T05:33:25;3.28;;;0.85;;
74867;SDS011;63419;42.262;12.210;2023-04-23T05:36:01;4.47;;;1.30;;
74867;SDS011;63419;42.262;12.210;2023-04-23T05:38:28;4.82;;;1.27;;
74867;SDS011;63419;42.262;12.210;2023-04-23T05:40:55;4.82;;;1.17;;
74867;SDS011;63419;42.262;12.210;2023-04-23T05:43:23;4.03;;;0.90;;
74867;SDS011;63419;42.262;12.210;2023-04-23T05:45:50;4.50;;;1.10;;
74867;SDS011;63419;42.262;12.210;2023-04-23T05:48:17;4.82;;;1.23;;
74867;SDS011;63419;42.262;12.210;2023-04-23T05:50:44;3.75;;;1.15;;
74867;SDS011;63419;42.262;12.210;2023-04-23T05:53:11;3.85;;;1.13;;
74867;SDS011;63419;42.262;12.210;2023-04-23T05:55:38;3.72;;;1.20;;
74867;SDS011;63419;42.262;12.210;2023-04-23T05:58:05;5.22;;;1.23;;
74867;SDS011;63419;42.262;12.210;2023-04-23T06:00:32;3.47;;;1.02;;
74867;SDS011;63419;42.262;12.210;2023-04-23T06:03:00;3.70;;;0.88;;
74867;SDS011;63419;42.262;12.210;2023-04-23T06:05:28;4.43;;;1.10;;
74867;SDS011;63419;42.262;12.210;2023-04-23T06:10:22;3.53;;;1.15;;
74867;SDS011;63419;42.262;12.210;2023-04-23T06:12:49;4.22;;;1.15;;
74867;SDS011;63419;42.262;12.210;2023-04-23T06:15:16;3.35;;;0.80;;
74867;SDS011;63419;42.262;12.210;2023-04-23T06:17:42;27.48;;;7.07;;
74867;SDS011;63419;42.262;12.210;2023-04-23T06:20:09;17.52;;;3.97;;
74867;SDS011;63419;42.262;12.210;2023-04-23T06:22:37;4.78;;;1.50;;
74867;SDS011;63419;42.262;12.210;2023-04-23T06:25:04;5.17;;;1.60;;
74867;SDS011;63419;42.262;12.210;2023-04-23T06:29:59;4.70;;;1.83;;
74867;SDS011;63419;42.262;12.210;2023-04-23T06:32:26;8.02;;;3.03;;
74867;SDS011;63419;42.262;12.210;2023-04-23T06:34:53;7.88;;;3.40;;
74867;SDS011;63419;42.262;12.210;2023-04-23T06:37:27;7.32;;;3.00;;
74867;SDS011;63419;42.262;12.210;2023-04-23T06:39:56;9.70;;;3.33;;
74867;SDS011;63419;42.262;12.210;2023-04-23T06:42:24;8.07;;;3.30;;
74867;SDS011;63419;42.262;12.210;2023-04-23T06:44:51;9.10;;;3.45;;
74867;SDS011;63419;42.262;12.210;2023-04-23T06:47:18;7.60;;;3.40;;
74867;SDS011;63419;42.262;12.210;2023-04-23T06:49:45;7.63;;;3.25;;
74867;SDS011;63419;42.262;12.210;2023-04-23T06:52:12;7.30;;;3.58;;
74867;SDS011;63419;42.262;12.210;2023-04-23T06:54:39;7.65;;;3.25;;
74867;SDS011;63419;42.262;12.210;2023-04-23T06:57:08;4.90;;;2.33;;
74867;SDS011;63419;42.262;12.210;2023-04-23T06:59:35;6.35;;;2.33;;
74867;SDS011;63419;42.262;12.210;2023-04-23T07:02:02;6.90;;;2.58;;
74867;SDS011;63419;42.262;12.210;2023-04-23T07:04:29;5.28;;;2.42;;
74867;SDS011;63419;42.262;12.210;2023-04-23T07:06:56;8.25;;;3.30;;
74867;SDS011;63419;42.262;12.210;2023-04-23T07:11:52;5.57;;;2.60;;
74867;SDS011;63419;42.262;12.210;2023-04-23T07:14:19;7.72;;;2.45;;
74867;SDS011;63419;42.262;12.210;2023-04-23T07:16:46;5.88;;;2.13;;
74867;SDS011;63419;42.262;12.210;2023-04-23T07:19:13;5.78;;;2.22;;
74867;SDS011;63419;42.262;12.210;2023-04-23T07:21:40;8.13;;;2.70;;
74867;SDS011;63419;42.262;12.210;2023-04-23T07:24:07;5.80;;;2.05;;
74867;SDS011;63419;42.262;12.210;2023-04-23T07:26:34;5.90;;;2.33;;
74867;SDS011;63419;42.262;12.210;2023-04-23T07:29:02;5.93;;;2.40;;
74867;SDS011;63419;42.262;12.210;2023-04-23T07:31:32;5.55;;;2.30;;
74867;SDS011;63419;42.262;12.210;2023-04-23T07:33:59;6.65;;;2.35;;
74867;SDS011;63419;42.262;12.210;2023-04-23T07:36:26;7.47;;;2.53;;
74867;SDS011;63419;42.262;12.210;2023-04-23T07:38:53;6.72;;;2.80;;
74867;SDS011;63419;42.262;12.210;2023-04-23T07:41:21;7.05;;;2.70;;
74867;SDS011;63419;42.262;12.210;2023-04-23T07:43:48;7.70;;;3.45;;
74867;SDS011;63419;42.262;12.210;2023-04-23T07:46:15;7.82;;;3.00;;
74867;SDS011;63419;42.262;12.210;2023-04-23T07:48:42;7.20;;;3.03;;
74867;SDS011;63419;42.262;12.210;2023-04-23T07:53:36;7.78;;;3.80;;
74867;SDS011;63419;42.262;12.210;2023-04-23T07:58:30;7.95;;;3.50;;
74867;SDS011;63419;42.262;12.210;2023-04-23T08:00:58;7.03;;;2.60;;
74867;SDS011;63419;42.262;12.210;2023-04-23T08:03:25;5.80;;;2.50;;
74867;SDS011;63419;42.262;12.210;2023-04-23T08:05:54;5.33;;;2.39;;
74867;SDS011;63419;42.262;12.210;2023-04-23T08:08:22;7.05;;;2.53;;
74867;SDS011;63419;42.262;12.210;2023-04-23T08:13:16;6.45;;;2.85;;
74867;SDS011;63419;42.262;12.210;2023-04-23T08:15:42;8.10;;;2.90;;
74867;SDS011;63419;42.262;12.210;2023-04-23T08:18:09;7.20;;;2.95;;
74867;SDS011;63419;42.262;12.210;2023-04-23T08:20:36;7.22;;;2.60;;
74867;SDS011;63419;42.262;12.210;2023-04-23T08:23:04;10.52;;;3.60;;
74867;SDS011;63419;42.262;12.210;2023-04-23T08:25:31;9.90;;;3.80;;
74867;SDS011;63419;42.262;12.210;2023-04-23T08:27:58;10.52;;;4.75;;
74867;SDS011;63419;42.262;12.210;2023-04-23T08:30:25;13.35;;;5.38;;
74867;SDS011;63419;42.262;12.210;2023-04-23T08:32:53;10.55;;;4.97;;
74867;SDS011;63419;42.262;12.210;2023-04-23T08:35:20;11.05;;;5.45;;
74867;SDS011;63419;42.262;12.210;2023-04-23T08:37:48;12.02;;;4.90;;
74867;SDS011;63419;42.262;12.210;2023-04-23T08:40:15;11.50;;;4.75;;
74867;SDS011;63419;42.262;12.210;2023-04-23T08:45:09;12.25;;;5.20;;
74867;SDS011;63419;42.262;12.210;2023-04-23T08:47:40;9.18;;;4.35;;
74867;SDS011;63419;42.262;12.210;2023-04-23T08:50:09;8.40;;;3.22;;
74867;SDS011;63419;42.262;12.210;2023-04-23T08:52:40;8.50;;;3.28;;
74867;SDS011;63419;42.262;12.210;2023-04-23T08:55:11;6.80;;;2.75;;
74867;SDS011;63419;42.262;12.210;2023-04-23T08:57:41;6.82;;;2.45;;
74867;SDS011;63419;42.262;12.210;2023-04-23T09:00:09;7.00;;;1.92;;
74867;SDS011;63419;42.262;12.210;2023-04-23T09:02:40;5.93;;;2.10;;
74867;SDS011;63419;42.262;12.210;2023-04-23T09:05:08;6.95;;;2.53;;
74867;SDS011;63419;42.262;12.210;2023-04-23T09:07:35;8.95;;;3.20;;
74867;SDS011;63419;42.262;12.210;2023-04-23T09:10:03;6.28;;;2.25;;
74867;SDS011;63419;42.262;12.210;2023-04-23T09:12:35;8.75;;;2.30;;
74867;SDS011;63419;42.262;12.210;2023-04-23T09:15:03;3.83;;;1.00;;
74867;SDS011;63419;42.262;12.210;2023-04-23T09:17:38;3.60;;;1.02;;
74867;SDS011;63419;42.262;12.210;2023-04-23T09:20:08;3.50;;;1.00;;
74867;SDS011;63419;42.262;12.210;2023-04-23T09:25:18;5.55;;;1.63;;
74867;SDS011;63419;42.262;12.210;2023-04-23T09:27:51;6.40;;;2.00;;
74867;SDS011;63419;42.262;12.210;2023-04-23T09:30:18;5.85;;;2.10;;
74867;SDS011;63419;42.262;12.210;2023-04-23T09:32:46;8.40;;;2.80;;
74867;SDS011;63419;42.262;12.210;2023-04-23T09:35:16;11.20;;;4.53;;
74867;SDS011;63419;42.262;12.210;2023-04-23T09:37:48;13.10;;;3.83;;
74867;SDS011;63419;42.262;12.210;2023-04-23T09:40:17;9.70;;;3.65;;
74867;SDS011;63419;42.262;12.210;2023-04-23T09:42:49;8.10;;;2.92;;
74867;SDS011;63419;42.262;12.210;2023-04-23T09:45:20;11.63;;;1.95;;
74867;SDS011;63419;42.262;12.210;2023-04-23T09:47:52;6.55;;;1.58;;
74867;SDS011;63419;42.262;12.210;2023-04-23T09:50:36;9.70;;;3.60;;
74867;SDS011;63419;42.262;12.210;2023-04-23T09:53:05;11.93;;;5.13;;
74867;SDS011;63419;42.262;12.210;2023-04-23T09:55:37;15.07;;;6.78;;
74867;SDS011;63419;42.262;12.210;2023-04-23T09:58:05;8.10;;;2.25;;
74867;SDS011;63419;42.262;12.210;2023-04-23T10:00:37;7.82;;;3.13;;
74867;SDS011;63419;42.262;12.210;2023-04-23T10:03:04;8.70;;;3.67;;
74867;SDS011;63419;42.262;12.210;2023-04-23T10:05:36;9.23;;;3.33;;
74867;SDS011;63419;42.262;12.210;2023-04-23T10:08:11;10.30;;;3.45;;
74867;SDS011;63419;42.262;12.210;2023-04-23T10:10:39;7.82;;;3.00;;
74867;SDS011;63419;42.262;12.210;2023-04-23T10:13:25;7.40;;;2.00;;
74867;SDS011;63419;42.262;12.210;2023-04-23T10:15:53;6.57;;;2.40;;
74867;SDS011;63419;42.262;12.210;2023-04-23T10:18:25;7.20;;;2.55;;
74867;SDS011;63419;42.262;12.210;2023-04-23T10:20:53;7.43;;;2.05;;
74867;SDS011;63419;42.262;12.210;2023-04-23T10:23:21;6.20;;;1.80;;
74867;SDS011;63419;42.262;12.210;2023-04-23T10:25:51;5.55;;;1.55;;
74867;SDS011;63419;42.262;12.210;2023-04-23T10:28:20;6.80;;;1.85;;
74867;SDS011;63419;42.262;12.210;2023-04-23T10:30:53;6.05;;;2.72;;
74867;SDS011;63419;42.262;12.210;2023-04-23T10:33:22;6.45;;;2.13;;
74867;SDS011;63419;42.262;12.210;2023-04-23T10:36:00;10.00;;;2.90;;
74867;SDS011;63419;42.262;12.210;2023-04-23T10:38:28;7.43;;;2.10;;
74867;SDS011;63419;42.262;12.210;2023-04-23T10:40:55;5.45;;;2.17;;
74867;SDS011;63419;42.262;12.210;2023-04-23T10:43:26;5.72;;;1.77;;
74867;SDS011;63419;42.262;12.210;2023-04-23T10:45:53;7.38;;;1.90;;
74867;SDS011;63419;42.262;12.210;2023-04-23T10:48:19;4.68;;;1.88;;
74867;SDS011;63419;42.262;12.210;2023-04-23T10:50:46;5.22;;;2.30;;
74867;SDS011;63419;42.262;12.210;2023-04-23T10:53:44;5.63;;;1.90;;
74867;SDS011;63419;42.262;12.210;2023-04-23T10:56:11;5.28;;;1.70;;
74867;SDS011;63419;42.262;12.210;2023-04-23T10:58:48;6.10;;;1.92;;
74867;SDS011;63419;42.262;12.210;2023-04-23T11:01:16;7.07;;;2.10;;
74867;SDS011;63419;42.262;12.210;2023-04-23T11:03:44;7.38;;;1.98;;
74867;SDS011;63419;42.262;12.210;2023-04-23T11:06:14;7.18;;;2.40;;
74867;SDS011;63419;42.262;12.210;2023-04-23T11:09:26;6.60;;;2.08;;
74867;SDS011;63419;42.262;12.210;2023-04-23T11:12:51;6.55;;;2.47;;
74867;SDS011;63419;42.262;12.210;2023-04-23T11:14:53;8.40;;;2.80;;
74867;SDS011;63419;42.262;12.210;2023-04-23T11:18:06;7.03;;;2.42;;
74867;SDS011;63419;42.262;12.210;2023-04-23T11:22:41;9.32;;;3.42;;
74867;SDS011;63419;42.262;12.210;2023-04-23T11:25:13;8.20;;;3.10;;
74867;SDS011;63419;42.262;12.210;2023-04-23T11:27:52;5.68;;;1.90;;
74867;SDS011;63419;42.262;12.210;2023-04-23T11:32:50;4.82;;;2.00;;
74867;SDS011;63419;42.262;12.210;2023-04-23T11:35:21;6.22;;;2.03;;
74867;SDS011;63419;42.262;12.210;2023-04-23T11:38:08;6.03;;;1.83;;
74867;SDS011;63419;42.262;12.210;2023-04-23T11:40:35;8.32;;;2.47;;
74867;SDS011;63419;42.262;12.210;2023-04-23T11:43:05;6.22;;;1.88;;
74867;SDS011;63419;42.262;12.210;2023-04-23T11:45:34;4.97;;;1.58;;
74867;SDS011;63419;42.262;12.210;2023-04-23T11:48:02;5.55;;;1.80;;
74867;SDS011;63419;42.262;12.210;2023-04-23T11:50:31;9.25;;;2.08;;
74867;SDS011;63419;42.262;12.210;2023-04-23T11:53:04;6.30;;;1.83;;
74867;SDS011;63419;42.262;12.210;2023-04-23T11:55:32;6.20;;;1.70;;
74867;SDS011;63419;42.262;12.210;2023-04-23T11:57:59;6.10;;;1.45;;
74867;SDS011;63419;42.262;12.210;2023-04-23T12:00:26;5.13;;;1.42;;
74867;SDS011;63419;42.262;12.210;2023-04-23T12:02:54;4.93;;;1.25;;
74867;SDS011;63419;42.262;12.210;2023-04-23T12:08:06;3.88;;;0.98;;
74867;SDS011;63419;42.262;12.210;2023-04-23T12:10:40;5.10;;;0.73;;
74867;SDS011;63419;42.262;12.210;2023-04-23T12:13:13;4.85;;;0.93;;
74867;SDS011;63419;42.262;12.210;2023-04-23T12:15:48;3.72;;;1.02;;
74867;SDS011;63419;42.262;12.210;2023-04-23T12:18:16;5.40;;;1.00;;
74867;SDS011;63419;42.262;12.210;2023-04-23T12:20:44;5.38;;;0.80;;
74867;SDS011;63419;42.262;12.210;2023-04-23T12:23:11;2.63;;;0.77;;
74867;SDS011;63419;42.262;12.210;2023-04-23T12:25:38;5.80;;;1.13;;
74867;SDS011;63419;42.262;12.210;2023-04-23T12:28:07;5.32;;;1.13;;
74867;SDS011;63419;42.262;12.210;2023-04-23T12:30:40;6.00;;;1.30;;
74867;SDS011;63419;42.262;12.210;2023-04-23T12:33:10;6.07;;;1.00;;
74867;SDS011;63419;42.262;12.210;2023-04-23T12:35:38;6.80;;;1.27;;
74867;SDS011;63419;42.262;12.210;2023-04-23T12:38:06;4.32;;;1.08;;
74867;SDS011;63419;42.262;12.210;2023-04-23T12:40:33;10.57;;;1.38;;
74867;SDS011;63419;42.262;12.210;2023-04-23T12:43:00;4.93;;;0.82;;
74867;SDS011;63419;42.262;12.210;2023-04-23T12:45:35;6.63;;;1.00;;
74867;SDS011;63419;42.262;12.210;2023-04-23T12:48:03;6.85;;;0.90;;
74867;SDS011;63419;42.262;12.210;2023-04-23T12:50:30;6.88;;;1.02;;
74867;SDS011;63419;42.262;12.210;2023-04-23T12:52:57;5.05;;;1.33;;
74867;SDS011;63419;42.262;12.210;2023-04-23T12:55:24;6.60;;;1.33;;
74867;SDS011;63419;42.262;12.210;2023-04-23T12:57:51;6.38;;;1.25;;
74867;SDS011;63419;42.262;12.210;2023-04-23T13:00:18;4.18;;;0.73;;
74867;SDS011;63419;42.262;12.210;2023-04-23T13:02:45;4.60;;;1.02;;
74867;SDS011;63419;42.262;12.210;2023-04-23T13:05:13;5.78;;;1.00;;
74867;SDS011;63419;42.262;12.210;2023-04-23T13:07:40;4.03;;;1.08;;
74867;SDS011;63419;42.262;12.210;2023-04-23T13:10:08;4.18;;;0.82;;
74867;SDS011;63419;42.262;12.210;2023-04-23T13:12:36;6.03;;;0.90;;
74867;SDS011;63419;42.262;12.210;2023-04-23T13:15:04;4.57;;;1.13;;
74867;SDS011;63419;42.262;12.210;2023-04-23T13:17:32;4.53;;;1.02;;
74867;SDS011;63419;42.262;12.210;2023-04-23T13:19:59;3.25;;;0.65;;
74867;SDS011;63419;42.262;12.210;2023-04-23T13:22:26;7.07;;;1.02;;
74867;SDS011;63419;42.262;12.210;2023-04-23T13:24:56;5.03;;;0.80;;
74867;SDS011;63419;42.262;12.210;2023-04-23T13:27:25;6.18;;;0.93;;
74867;SDS011;63419;42.262;12.210;2023-04-23T13:29:53;3.83;;;0.80;;
74867;SDS011;63419;42.262;12.210;2023-04-23T13:32:21;8.52;;;1.02;;
74867;SDS011;63419;42.262;12.210;2023-04-23T13:34:53;7.63;;;0.93;;
74867;SDS011;63419;42.262;12.210;2023-04-23T13:37:20;5.85;;;1.15;;
74867;SDS011;63419;42.262;12.210;2023-04-23T13:39:49;3.72;;;0.90;;
74867;SDS011;63419;42.262;12.210;2023-04-23T13:42:16;4.47;;;0.93;;
74867;SDS011;63419;42.262;12.210;2023-04-23T13:44:43;6.93;;;1.00;;
74867;SDS011;63419;42.262;12.210;2023-04-23T13:47:10;5.07;;;0.95;;
74867;SDS011;63419;42.262;12.210;2023-04-23T13:49:37;6.85;;;1.10;;
74867;SDS011;63419;42.262;12.210;2023-04-23T13:52:04;5.57;;;0.95;;
74867;SDS011;63419;42.262;12.210;2023-04-23T13:54:32;8.35;;;1.23;;
74867;SDS011;63419;42.262;12.210;2023-04-23T13:57:01;4.22;;;1.00;;
74867;SDS011;63419;42.262;12.210;2023-04-23T13:59:28;7.07;;;0.90;;
74867;SDS011;63419;42.262;12.210;2023-04-23T14:01:55;6.40;;;0.88;;
74867;SDS011;63419;42.262;12.210;2023-04-23T14:04:21;6.85;;;1.30;;
74867;SDS011;63419;42.262;12.210;2023-04-23T14:06:49;6.57;;;1.30;;
74867;SDS011;63419;42.262;12.210;2023-04-23T14:09:16;5.68;;;1.13;;
74867;SDS011;63419;42.262;12.210;2023-04-23T14:11:44;4.43;;;0.90;;
74867;SDS011;63419;42.262;12.210;2023-04-23T14:14:11;5.72;;;1.10;;
74867;SDS011;63419;42.262;12.210;2023-04-23T14:16:38;5.35;;;1.13;;
74867;SDS011;63419;42.262;12.210;2023-04-23T14:19:05;6.28;;;1.23;;
74867;SDS011;63419;42.262;12.210;2023-04-23T14:21:32;6.95;;;0.93;;
74867;SDS011;63419;42.262;12.210;2023-04-23T14:24:06;6.57;;;1.30;;
74867;SDS011;63419;42.262;12.210;2023-04-23T14:26:35;5.93;;;1.50;;
74867;SDS011;63419;42.262;12.210;2023-04-23T14:29:09;6.60;;;1.08;;
74867;SDS011;63419;42.262;12.210;2023-04-23T14:31:54;4.82;;;1.00;;
74867;SDS011;63419;42.262;12.210;2023-04-23T14:34:21;4.57;;;0.90;;
74867;SDS011;63419;42.262;12.210;2023-04-23T14:36:48;5.32;;;1.10;;
74867;SDS011;63419;42.262;12.210;2023-04-23T14:39:15;7.30;;;0.80;;
74867;SDS011;63419;42.262;12.210;2023-04-23T14:41:42;3.83;;;0.82;;
74867;SDS011;63419;42.262;12.210;2023-04-23T14:44:10;7.10;;;1.20;;
74867;SDS011;63419;42.262;12.210;2023-04-23T14:46:37;6.47;;;1.00;;
74867;SDS011;63419;42.262;12.210;2023-04-23T14:49:04;2.20;;;0.73;;
74867;SDS011;63419;42.262;12.210;2023-04-23T14:51:31;6.35;;;0.90;;
74867;SDS011;63419;42.262;12.210;2023-04-23T14:53:58;3.83;;;0.73;;
74867;SDS011;63419;42.262;12.210;2023-04-23T14:56:25;4.72;;;0.98;;
74867;SDS011;63419;42.262;12.210;2023-04-23T14:58:53;5.10;;;1.25;;
74867;SDS011;63419;42.262;12.210;2023-04-23T15:01:20;5.35;;;0.90;;
74867;SDS011;63419;42.262;12.210;2023-04-23T15:03:47;3.45;;;0.93;;
74867;SDS011;63419;42.262;12.210;2023-04-23T15:06:14;6.65;;;1.00;;
74867;SDS011;63419;42.262;12.210;2023-04-23T15:08:41;5.68;;;1.05;;
74867;SDS011;63419;42.262;12.210;2023-04-23T15:11:08;5.13;;;0.88;;
74867;SDS011;63419;42.262;12.210;2023-04-23T15:16:18;4.00;;;1.00;;
74867;SDS011;63419;42.262;12.210;2023-04-23T15:19:10;6.70;;;1.35;;
74867;SDS011;63419;42.262;12.210;2023-04-23T15:21:37;6.45;;;1.00;;
74867;SDS011;63419;42.262;12.210;2023-04-23T15:24:04;6.88;;;0.90;;
74867;SDS011;63419;42.262;12.210;2023-04-23T15:26:33;4.95;;;1.00;;
74867;SDS011;63419;42.262;12.210;2023-04-23T15:29:00;5.93;;;0.95;;
74867;SDS011;63419;42.262;12.210;2023-04-23T15:31:28;4.85;;;1.02;;
74867;SDS011;63419;42.262;12.210;2023-04-23T15:33:55;5.18;;;0.82;;